sensor_id;sensor_type;location;lat;lon;timestamp;pressure;altitude;pressure_sealevel;temperature;humidity
64687;BME280;51113;53.646;-113.674;2024-01-07T00:00:51;92975.66;;;-8.64;100.00
64687;BME280;51113;53.646;-113.674;2024-01-07T00:03:20;92976.44;;;-8.63;100.00
64687;BME280;51113;53.646;-113.674;2024-01-07T00:05:50;92980.06;;;-8.66;100.00
64687;BME280;51113;53.646;-113.674;2024-01-07T00:08:19;92979.41;;;-8.60;100.00
64687;BME280;51113;53.646;-113.674;2024-01-07T00:10:49;92982.25;;;-8.55;100.00
64687;BME280;51113;53.646;-113.674;2024-01-07T00:13:20;92982.88;;;-8.61;100.00
64687;BME280;51113;53.646;-113.674;2024-01-07T00:15:49;92960.13;;;-8.75;100.00
64687;BME280;51113;53.646;-113.674;2024-01-07T00:18:18;92990.41;;;-8.53;100.00
64687;BME280;51113;53.646;-113.674;2024-01-07T00:20:46;92950.84;;;-8.75;100.00
64687;BME280;51113;53.646;-113.674;2024-01-07T00:23:15;92998.13;;;-8.54;100.00
64687;BME280;51113;53.646;-113.674;2024-01-07T00:25:44;92986.00;;;-8.51;100.00
64687;BME280;51113;53.646;-113.674;2024-01-07T00:28:13;92954.47;;;-8.77;100.00
64687;BME280;51113;53.646;-113.674;2024-01-07T00:30:41;92992.59;;;-8.50;100.00
64687;BME280;51113;53.646;-113.674;2024-01-07T00:33:11;92988.25;;;-8.64;100.00
64687;BME280;51113;53.646;-113.674;2024-01-07T00:35:39;92931.13;;;-9.02;99.25
64687;BME280;51113;53.646;-113.674;2024-01-07T00:38:08;93004.75;;;-8.61;97.88
64687;BME280;51113;53.646;-113.674;2024-01-07T00:40:36;93009.00;;;-8.62;98.81
64687;BME280;51113;53.646;-113.674;2024-01-07T00:43:06;93009.31;;;-8.65;98.04
64687;BME280;51113;53.646;-113.674;2024-01-07T00:45:35;93019.84;;;-8.69;97.95
64687;BME280;51113;53.646;-113.674;2024-01-07T00:48:04;92977.63;;;-8.98;97.87
64687;BME280;51113;53.646;-113.674;2024-01-07T00:50:33;93023.78;;;-8.67;98.49
64687;BME280;51113;53.646;-113.674;2024-01-07T00:53:02;92993.31;;;-8.88;97.99
64687;BME280;51113;53.646;-113.674;2024-01-07T00:55:31;93031.03;;;-8.72;97.96
64687;BME280;51113;53.646;-113.674;2024-01-07T00:57:59;92997.41;;;-8.95;98.40
64687;BME280;51113;53.646;-113.674;2024-01-07T01:00:28;93043.13;;;-8.75;98.15
64687;BME280;51113;53.646;-113.674;2024-01-07T01:02:58;93044.69;;;-8.74;98.11
64687;BME280;51113;53.646;-113.674;2024-01-07T01:05:26;93031.19;;;-8.90;98.64
64687;BME280;51113;53.646;-113.674;2024-01-07T01:07:55;93050.38;;;-8.81;98.10
64687;BME280;51113;53.646;-113.674;2024-01-07T01:10:24;93025.22;;;-8.97;97.93
64687;BME280;51113;53.646;-113.674;2024-01-07T01:12:53;93047.84;;;-8.81;97.78
64687;BME280;51113;53.646;-113.674;2024-01-07T01:15:22;93059.81;;;-8.83;98.16
64687;BME280;51113;53.646;-113.674;2024-01-07T01:17:50;93032.31;;;-9.00;98.79
64687;BME280;51113;53.646;-113.674;2024-01-07T01:20:18;93067.19;;;-8.81;98.41
64687;BME280;51113;53.646;-113.674;2024-01-07T01:22:47;93072.22;;;-8.81;98.50
64687;BME280;51113;53.646;-113.674;2024-01-07T01:25:16;93028.53;;;-9.13;98.00
64687;BME280;51113;53.646;-113.674;2024-01-07T01:27:46;93042.84;;;-9.05;98.06
64687;BME280;51113;53.646;-113.674;2024-01-07T01:30:15;93079.44;;;-8.86;97.94
64687;BME280;51113;53.646;-113.674;2024-01-07T01:32:44;93060.91;;;-9.09;98.62
64687;BME280;51113;53.646;-113.674;2024-01-07T01:35:14;93098.00;;;-8.87;98.10
64687;BME280;51113;53.646;-113.674;2024-01-07T01:37:42;93087.63;;;-8.92;98.47
64687;BME280;51113;53.646;-113.674;2024-01-07T01:40:11;93095.78;;;-8.82;98.04
64687;BME280;51113;53.646;-113.674;2024-01-07T01:42:43;93102.56;;;-8.83;98.17
64687;BME280;51113;53.646;-113.674;2024-01-07T01:45:12;93097.22;;;-8.88;98.24
64687;BME280;51113;53.646;-113.674;2024-01-07T01:47:41;93105.22;;;-8.84;97.79
64687;BME280;51113;53.646;-113.674;2024-01-07T01:50:11;93108.84;;;-8.87;97.79
64687;BME280;51113;53.646;-113.674;2024-01-07T01:52:40;93108.84;;;-8.87;98.30
64687;BME280;51113;53.646;-113.674;2024-01-07T01:55:10;93076.31;;;-9.13;98.04
64687;BME280;51113;53.646;-113.674;2024-01-07T01:57:40;93090.44;;;-9.03;98.08
64687;BME280;51113;53.646;-113.674;2024-01-07T02:00:09;93114.66;;;-8.86;97.69
64687;BME280;51113;53.646;-113.674;2024-01-07T02:02:38;93127.84;;;-8.84;97.79
64687;BME280;51113;53.646;-113.674;2024-01-07T02:05:10;93130.22;;;-8.83;98.51
64687;BME280;51113;53.646;-113.674;2024-01-07T02:07:42;93131.63;;;-8.88;98.10
64687;BME280;51113;53.646;-113.674;2024-01-07T02:10:11;93139.00;;;-8.95;97.80
64687;BME280;51113;53.646;-113.674;2024-01-07T02:12:40;93144.19;;;-9.04;97.66
64687;BME280;51113;53.646;-113.674;2024-01-07T02:15:09;93148.84;;;-9.26;97.92
64687;BME280;51113;53.646;-113.674;2024-01-07T02:17:38;93117.94;;;-9.76;97.81
64687;BME280;51113;53.646;-113.674;2024-01-07T02:20:07;93166.44;;;-9.76;98.30
64687;BME280;51113;53.646;-113.674;2024-01-07T02:22:36;93162.47;;;-9.87;98.37
64687;BME280;51113;53.646;-113.674;2024-01-07T02:25:05;93164.63;;;-9.92;97.96
64687;BME280;51113;53.646;-113.674;2024-01-07T02:27:34;93170.41;;;-9.99;97.74
64687;BME280;51113;53.646;-113.674;2024-01-07T02:30:05;93174.59;;;-10.08;97.16
64687;BME280;51113;53.646;-113.674;2024-01-07T02:32:34;93182.69;;;-10.22;97.12
64687;BME280;51113;53.646;-113.674;2024-01-07T02:35:06;93189.66;;;-10.34;97.08
64687;BME280;51113;53.646;-113.674;2024-01-07T02:37:35;93191.97;;;-10.40;96.96
64687;BME280;51113;53.646;-113.674;2024-01-07T02:40:04;93198.16;;;-10.53;96.13
64687;BME280;51113;53.646;-113.674;2024-01-07T02:42:33;93206.56;;;-10.62;96.68
64687;BME280;51113;53.646;-113.674;2024-01-07T02:45:02;93213.44;;;-10.64;95.88
64687;BME280;51113;53.646;-113.674;2024-01-07T02:47:30;93207.78;;;-10.66;96.40
64687;BME280;51113;53.646;-113.674;2024-01-07T02:50:00;93208.34;;;-10.72;95.64
64687;BME280;51113;53.646;-113.674;2024-01-07T02:52:29;93221.75;;;-10.81;95.98
64687;BME280;51113;53.646;-113.674;2024-01-07T02:54:59;93198.03;;;-11.04;96.19
64687;BME280;51113;53.646;-113.674;2024-01-07T02:57:30;93225.47;;;-10.85;95.74
64687;BME280;51113;53.646;-113.674;2024-01-07T02:59:58;93229.09;;;-10.97;95.58
64687;BME280;51113;53.646;-113.674;2024-01-07T03:02:27;93230.81;;;-11.16;96.11
64687;BME280;51113;53.646;-113.674;2024-01-07T03:04:56;93206.78;;;-11.36;95.67
64687;BME280;51113;53.646;-113.674;2024-01-07T03:07:25;93239.03;;;-11.23;94.82
64687;BME280;51113;53.646;-113.674;2024-01-07T03:09:53;93253.44;;;-11.35;95.19
64687;BME280;51113;53.646;-113.674;2024-01-07T03:12:22;93259.56;;;-11.47;95.11
64687;BME280;51113;53.646;-113.674;2024-01-07T03:14:51;93259.78;;;-11.68;94.49
64687;BME280;51113;53.646;-113.674;2024-01-07T03:17:20;93215.03;;;-12.08;94.79
64687;BME280;51113;53.646;-113.674;2024-01-07T03:19:50;93252.75;;;-11.82;94.69
64687;BME280;51113;53.646;-113.674;2024-01-07T03:22:18;93254.22;;;-11.89;94.70
64687;BME280;51113;53.646;-113.674;2024-01-07T03:24:47;93264.34;;;-11.91;94.51
64687;BME280;51113;53.646;-113.674;2024-01-07T03:27:16;93259.47;;;-11.83;93.67
64687;BME280;51113;53.646;-113.674;2024-01-07T03:29:45;93275.91;;;-11.80;94.15
64687;BME280;51113;53.646;-113.674;2024-01-07T03:32:13;93262.59;;;-11.81;93.18
64687;BME280;51113;53.646;-113.674;2024-01-07T03:34:42;93278.75;;;-11.75;93.35
64687;BME280;51113;53.646;-113.674;2024-01-07T03:37:11;93270.47;;;-11.76;93.99
64687;BME280;51113;53.646;-113.674;2024-01-07T03:39:40;93293.25;;;-11.69;93.97
64687;BME280;51113;53.646;-113.674;2024-01-07T03:42:09;93286.97;;;-11.83;93.48
64687;BME280;51113;53.646;-113.674;2024-01-07T03:44:40;93292.56;;;-12.08;92.82
64687;BME280;51113;53.646;-113.674;2024-01-07T03:47:09;93295.19;;;-12.10;92.45
64687;BME280;51113;53.646;-113.674;2024-01-07T03:49:37;93312.19;;;-12.13;92.60
64687;BME280;51113;53.646;-113.674;2024-01-07T03:52:08;93319.16;;;-12.17;93.06
64687;BME280;51113;53.646;-113.674;2024-01-07T03:54:38;93262.59;;;-12.56;92.84
64687;BME280;51113;53.646;-113.674;2024-01-07T03:57:06;93311.78;;;-12.18;92.96
64687;BME280;51113;53.646;-113.674;2024-01-07T03:59:35;93321.66;;;-12.26;92.74
64687;BME280;51113;53.646;-113.674;2024-01-07T04:02:03;93332.19;;;-12.23;93.21
64687;BME280;51113;53.646;-113.674;2024-01-07T04:04:32;93329.44;;;-12.29;93.26
64687;BME280;51113;53.646;-113.674;2024-01-07T04:07:01;93339.97;;;-12.35;92.59
64687;BME280;51113;53.646;-113.674;2024-01-07T04:09:30;93330.22;;;-12.38;93.62
64687;BME280;51113;53.646;-113.674;2024-01-07T04:11:58;93339.16;;;-12.46;93.65
64687;BME280;51113;53.646;-113.674;2024-01-07T04:14:27;93343.91;;;-12.43;93.34
64687;BME280;51113;53.646;-113.674;2024-01-07T04:16:56;93356.94;;;-12.29;93.57
64687;BME280;51113;53.646;-113.674;2024-01-07T04:19:25;93358.25;;;-12.25;93.78
64687;BME280;51113;53.646;-113.674;2024-01-07T04:21:54;93314.81;;;-12.63;91.90
64687;BME280;51113;53.646;-113.674;2024-01-07T04:24:23;93366.41;;;-12.43;92.26
64687;BME280;51113;53.646;-113.674;2024-01-07T04:26:51;93360.75;;;-12.45;92.24
64687;BME280;51113;53.646;-113.674;2024-01-07T04:29:20;93364.97;;;-12.45;92.81
64687;BME280;51113;53.646;-113.674;2024-01-07T04:31:49;93343.75;;;-12.60;92.39
64687;BME280;51113;53.646;-113.674;2024-01-07T04:34:18;93333.34;;;-12.75;91.97
64687;BME280;51113;53.646;-113.674;2024-01-07T04:36:46;93374.94;;;-12.55;92.51
64687;BME280;51113;53.646;-113.674;2024-01-07T04:39:16;93383.91;;;-12.52;92.02
64687;BME280;51113;53.646;-113.674;2024-01-07T04:41:45;93341.88;;;-12.78;92.48
64687;BME280;51113;53.646;-113.674;2024-01-07T04:44:14;93384.41;;;-12.58;92.15
64687;BME280;51113;53.646;-113.674;2024-01-07T04:46:43;93381.50;;;-12.63;91.74
64687;BME280;51113;53.646;-113.674;2024-01-07T04:49:11;93388.09;;;-12.62;92.36
64687;BME280;51113;53.646;-113.674;2024-01-07T04:51:41;93388.59;;;-12.68;92.11
64687;BME280;51113;53.646;-113.674;2024-01-07T04:54:09;93352.88;;;-12.99;92.53
64687;BME280;51113;53.646;-113.674;2024-01-07T04:56:38;93355.34;;;-13.09;91.46
64687;BME280;51113;53.646;-113.674;2024-01-07T04:59:07;93411.41;;;-12.92;91.16
64687;BME280;51113;53.646;-113.674;2024-01-07T05:01:36;93404.69;;;-12.92;91.62
64687;BME280;51113;53.646;-113.674;2024-01-07T05:04:05;93386.88;;;-13.18;91.46
64687;BME280;51113;53.646;-113.674;2024-01-07T05:06:34;93413.53;;;-12.88;92.19
64687;BME280;51113;53.646;-113.674;2024-01-07T05:09:04;93414.16;;;-12.95;92.44
64687;BME280;51113;53.646;-113.674;2024-01-07T05:11:33;93421.91;;;-12.98;92.21
64687;BME280;51113;53.646;-113.674;2024-01-07T05:14:01;93392.63;;;-13.27;91.48
64687;BME280;51113;53.646;-113.674;2024-01-07T05:16:31;93432.63;;;-13.17;91.37
64687;BME280;51113;53.646;-113.674;2024-01-07T05:19:01;93442.34;;;-13.14;91.98
64687;BME280;51113;53.646;-113.674;2024-01-07T05:21:29;93447.06;;;-13.21;91.80
64687;BME280;51113;53.646;-113.674;2024-01-07T05:23:58;93375.13;;;-13.57;91.67
64687;BME280;51113;53.646;-113.674;2024-01-07T05:26:27;93445.22;;;-13.19;91.66
64687;BME280;51113;53.646;-113.674;2024-01-07T05:28:56;93447.44;;;-13.16;91.54
64687;BME280;51113;53.646;-113.674;2024-01-07T05:31:24;93455.34;;;-13.20;91.47
64687;BME280;51113;53.646;-113.674;2024-01-07T05:33:54;93450.78;;;-13.36;91.31
64687;BME280;51113;53.646;-113.674;2024-01-07T05:36:23;93454.56;;;-13.42;90.42
64687;BME280;51113;53.646;-113.674;2024-01-07T05:38:51;93466.69;;;-13.37;90.17
64687;BME280;51113;53.646;-113.674;2024-01-07T05:41:20;93441.09;;;-13.71;89.88
64687;BME280;51113;53.646;-113.674;2024-01-07T05:43:49;93463.88;;;-13.44;90.02
64687;BME280;51113;53.646;-113.674;2024-01-07T05:46:19;93479.28;;;-13.59;89.25
64687;BME280;51113;53.646;-113.674;2024-01-07T05:48:48;93486.94;;;-13.51;89.46
64687;BME280;51113;53.646;-113.674;2024-01-07T05:51:18;93489.81;;;-13.56;89.81
64687;BME280;51113;53.646;-113.674;2024-01-07T05:53:46;93494.59;;;-13.64;89.50
64687;BME280;51113;53.646;-113.674;2024-01-07T05:56:15;93495.09;;;-13.70;88.98
64687;BME280;51113;53.646;-113.674;2024-01-07T05:58:44;93503.13;;;-13.66;90.21
64687;BME280;51113;53.646;-113.674;2024-01-07T06:01:21;93504.34;;;-13.61;90.24
64687;BME280;51113;53.646;-113.674;2024-01-07T06:03:50;93512.44;;;-13.68;90.17
64687;BME280;51113;53.646;-113.674;2024-01-07T06:06:19;93516.06;;;-13.73;89.67
64687;BME280;51113;53.646;-113.674;2024-01-07T06:08:48;93487.69;;;-13.92;89.95
64687;BME280;51113;53.646;-113.674;2024-01-07T06:11:19;93517.91;;;-13.75;90.61
64687;BME280;51113;53.646;-113.674;2024-01-07T06:13:48;93520.16;;;-13.72;90.81
64687;BME280;51113;53.646;-113.674;2024-01-07T06:16:19;93480.19;;;-13.92;91.11
64687;BME280;51113;53.646;-113.674;2024-01-07T06:18:48;93533.09;;;-13.78;91.00
64687;BME280;51113;53.646;-113.674;2024-01-07T06:21:17;93543.31;;;-13.81;90.95
64687;BME280;51113;53.646;-113.674;2024-01-07T06:23:46;93477.69;;;-14.24;90.91
64687;BME280;51113;53.646;-113.674;2024-01-07T06:26:15;93540.69;;;-13.79;90.23
64687;BME280;51113;53.646;-113.674;2024-01-07T06:28:44;93551.34;;;-13.77;90.53
64687;BME280;51113;53.646;-113.674;2024-01-07T06:31:13;93550.13;;;-13.83;90.76
64687;BME280;51113;53.646;-113.674;2024-01-07T06:33:42;93563.38;;;-13.82;90.50
64687;BME280;51113;53.646;-113.674;2024-01-07T06:36:11;93557.19;;;-13.99;88.96
64687;BME280;51113;53.646;-113.674;2024-01-07T06:38:40;93577.81;;;-13.97;89.63
64687;BME280;51113;53.646;-113.674;2024-01-07T06:41:12;93571.47;;;-14.01;90.49
64687;BME280;51113;53.646;-113.674;2024-01-07T06:43:41;93570.13;;;-14.16;89.33
64687;BME280;51113;53.646;-113.674;2024-01-07T06:46:10;93583.03;;;-14.11;89.43
64687;BME280;51113;53.646;-113.674;2024-01-07T06:48:39;93586.22;;;-14.09;89.74
64687;BME280;51113;53.646;-113.674;2024-01-07T06:51:14;93603.00;;;-14.11;89.06
64687;BME280;51113;53.646;-113.674;2024-01-07T06:53:43;93609.78;;;-14.24;88.50
64687;BME280;51113;53.646;-113.674;2024-01-07T06:56:13;93574.81;;;-14.45;89.00
64687;BME280;51113;53.646;-113.674;2024-01-07T06:58:43;93593.13;;;-14.35;88.76
64687;BME280;51113;53.646;-113.674;2024-01-07T07:01:12;93611.16;;;-14.31;88.11
64687;BME280;51113;53.646;-113.674;2024-01-07T07:03:41;93615.78;;;-14.27;88.83
64687;BME280;51113;53.646;-113.674;2024-01-07T07:06:10;93617.16;;;-14.23;89.02
64687;BME280;51113;53.646;-113.674;2024-01-07T07:08:40;93615.56;;;-14.24;88.46
64687;BME280;51113;53.646;-113.674;2024-01-07T07:11:09;93622.59;;;-14.18;88.79
64687;BME280;51113;53.646;-113.674;2024-01-07T07:13:38;93616.59;;;-14.26;88.70
64687;BME280;51113;53.646;-113.674;2024-01-07T07:16:07;93580.13;;;-14.50;88.44
64687;BME280;51113;53.646;-113.674;2024-01-07T07:18:35;93618.41;;;-14.28;88.87
64687;BME280;51113;53.646;-113.674;2024-01-07T07:21:04;93624.63;;;-14.34;88.90
64687;BME280;51113;53.646;-113.674;2024-01-07T07:23:33;93579.00;;;-14.57;88.71
64687;BME280;51113;53.646;-113.674;2024-01-07T07:26:02;93609.69;;;-14.34;88.28
64687;BME280;51113;53.646;-113.674;2024-01-07T07:28:31;93623.28;;;-14.38;88.18
64687;BME280;51113;53.646;-113.674;2024-01-07T07:30:59;93609.47;;;-14.42;88.37
64687;BME280;51113;53.646;-113.674;2024-01-07T07:33:29;93629.75;;;-14.47;88.24
64687;BME280;51113;53.646;-113.674;2024-01-07T07:35:58;93632.56;;;-14.40;88.09
64687;BME280;51113;53.646;-113.674;2024-01-07T07:38:27;93619.00;;;-14.47;87.62
64687;BME280;51113;53.646;-113.674;2024-01-07T07:40:56;93620.69;;;-14.48;88.08
64687;BME280;51113;53.646;-113.674;2024-01-07T07:43:25;93631.56;;;-14.49;87.88
64687;BME280;51113;53.646;-113.674;2024-01-07T07:45:54;93632.81;;;-14.54;88.16
64687;BME280;51113;53.646;-113.674;2024-01-07T07:48:23;93633.13;;;-14.59;87.74
64687;BME280;51113;53.646;-113.674;2024-01-07T07:50:53;93629.28;;;-14.63;88.09
64687;BME280;51113;53.646;-113.674;2024-01-07T07:53:22;93626.31;;;-14.68;88.12
64687;BME280;51113;53.646;-113.674;2024-01-07T07:55:51;93621.56;;;-14.71;88.30
64687;BME280;51113;53.646;-113.674;2024-01-07T07:58:19;93587.22;;;-14.90;88.30
64687;BME280;51113;53.646;-113.674;2024-01-07T08:00:49;93629.59;;;-14.67;88.66
64687;BME280;51113;53.646;-113.674;2024-01-07T08:03:21;93581.00;;;-14.95;88.64
64687;BME280;51113;53.646;-113.674;2024-01-07T08:05:49;93598.19;;;-14.92;88.30
64687;BME280;51113;53.646;-113.674;2024-01-07T08:08:19;93637.41;;;-14.72;89.21
64687;BME280;51113;53.646;-113.674;2024-01-07T08:10:47;93637.19;;;-14.69;89.37
64687;BME280;51113;53.646;-113.674;2024-01-07T08:13:16;93646.25;;;-14.68;89.99
64687;BME280;51113;53.646;-113.674;2024-01-07T08:15:45;93642.63;;;-14.64;89.48
64687;BME280;51113;53.646;-113.674;2024-01-07T08:18:15;93652.47;;;-14.74;89.47
64687;BME280;51113;53.646;-113.674;2024-01-07T08:20:44;93627.38;;;-14.94;88.65
64687;BME280;51113;53.646;-113.674;2024-01-07T08:23:12;93649.28;;;-14.76;88.97
64687;BME280;51113;53.646;-113.674;2024-01-07T08:25:41;93653.47;;;-14.76;88.81
64687;BME280;51113;53.646;-113.674;2024-01-07T08:28:10;93662.03;;;-14.91;89.03
64687;BME280;51113;53.646;-113.674;2024-01-07T08:30:39;93652.97;;;-14.92;88.79
64687;BME280;51113;53.646;-113.674;2024-01-07T08:33:08;93658.84;;;-14.93;89.05
64687;BME280;51113;53.646;-113.674;2024-01-07T08:35:37;93659.72;;;-15.06;88.01
64687;BME280;51113;53.646;-113.674;2024-01-07T08:38:05;93671.25;;;-15.05;87.92
64687;BME280;51113;53.646;-113.674;2024-01-07T08:40:34;93661.91;;;-15.25;87.87
64687;BME280;51113;53.646;-113.674;2024-01-07T08:43:04;93684.34;;;-15.14;87.92
64687;BME280;51113;53.646;-113.674;2024-01-07T08:45:33;93687.28;;;-15.20;87.30
64687;BME280;51113;53.646;-113.674;2024-01-07T08:48:02;93647.41;;;-15.31;88.02
64687;BME280;51113;53.646;-113.674;2024-01-07T08:50:31;93685.69;;;-15.21;87.27
64687;BME280;51113;53.646;-113.674;2024-01-07T08:53:00;93668.38;;;-15.22;87.42
64687;BME280;51113;53.646;-113.674;2024-01-07T08:55:32;93694.41;;;-15.15;87.32
64687;BME280;51113;53.646;-113.674;2024-01-07T08:58:01;93693.63;;;-15.16;86.94
64687;BME280;51113;53.646;-113.674;2024-01-07T09:00:30;93667.03;;;-15.39;86.85
64687;BME280;51113;53.646;-113.674;2024-01-07T09:02:59;93703.53;;;-15.27;86.43
64687;BME280;51113;53.646;-113.674;2024-01-07T09:05:28;93707.13;;;-15.31;86.59
64687;BME280;51113;53.646;-113.674;2024-01-07T09:07:58;93714.16;;;-15.25;87.01
64687;BME280;51113;53.646;-113.674;2024-01-07T09:10:31;93724.31;;;-15.28;86.38
64687;BME280;51113;53.646;-113.674;2024-01-07T09:13:00;93698.59;;;-15.40;86.81
64687;BME280;51113;53.646;-113.674;2024-01-07T09:15:29;93718.56;;;-15.28;86.52
64687;BME280;51113;53.646;-113.674;2024-01-07T09:17:58;93712.09;;;-15.31;86.81
64687;BME280;51113;53.646;-113.674;2024-01-07T09:20:28;93720.97;;;-15.40;86.50
64687;BME280;51113;53.646;-113.674;2024-01-07T09:22:57;93722.25;;;-15.34;86.33
64687;BME280;51113;53.646;-113.674;2024-01-07T09:25:27;93721.03;;;-15.28;86.13
64687;BME280;51113;53.646;-113.674;2024-01-07T09:27:56;93733.69;;;-15.31;85.66
64687;BME280;51113;53.646;-113.674;2024-01-07T09:30:25;93726.16;;;-15.43;86.62
64687;BME280;51113;53.646;-113.674;2024-01-07T09:32:54;93735.50;;;-15.33;85.84
64687;BME280;51113;53.646;-113.674;2024-01-07T09:35:23;93706.47;;;-15.70;86.28
64687;BME280;51113;53.646;-113.674;2024-01-07T09:37:52;93740.69;;;-15.37;85.46
64687;BME280;51113;53.646;-113.674;2024-01-07T09:40:20;93753.25;;;-15.51;86.15
64687;BME280;51113;53.646;-113.674;2024-01-07T09:42:50;93742.09;;;-15.45;86.33
64687;BME280;51113;53.646;-113.674;2024-01-07T09:45:20;93717.59;;;-15.62;85.93
64687;BME280;51113;53.646;-113.674;2024-01-07T09:47:50;93763.78;;;-15.47;85.21
64687;BME280;51113;53.646;-113.674;2024-01-07T09:50:20;93735.25;;;-15.54;85.68
64687;BME280;51113;53.646;-113.674;2024-01-07T09:52:51;93737.91;;;-15.68;84.74
64687;BME280;51113;53.646;-113.674;2024-01-07T09:55:40;93773.25;;;-15.52;85.23
64687;BME280;51113;53.646;-113.674;2024-01-07T09:58:13;93783.00;;;-15.49;85.14
64687;BME280;51113;53.646;-113.674;2024-01-07T10:00:42;93792.16;;;-15.50;85.07
64687;BME280;51113;53.646;-113.674;2024-01-07T10:03:11;93793.06;;;-15.51;85.26
64687;BME280;51113;53.646;-113.674;2024-01-07T10:05:40;93779.13;;;-15.53;85.59
64687;BME280;51113;53.646;-113.674;2024-01-07T10:08:09;93800.22;;;-15.46;85.35
64687;BME280;51113;53.646;-113.674;2024-01-07T10:10:38;93774.16;;;-15.53;85.44
64687;BME280;51113;53.646;-113.674;2024-01-07T10:13:08;93748.44;;;-15.65;85.60
64687;BME280;51113;53.646;-113.674;2024-01-07T10:15:37;93807.34;;;-15.29;85.32
64687;BME280;51113;53.646;-113.674;2024-01-07T10:18:07;93774.09;;;-15.64;85.59
64687;BME280;51113;53.646;-113.674;2024-01-07T10:20:36;93799.31;;;-15.45;86.39
64687;BME280;51113;53.646;-113.674;2024-01-07T10:23:10;93787.78;;;-15.46;86.42
64687;BME280;51113;53.646;-113.674;2024-01-07T10:25:40;93757.97;;;-15.59;85.87
64687;BME280;51113;53.646;-113.674;2024-01-07T10:28:08;93804.28;;;-15.45;86.72
64687;BME280;51113;53.646;-113.674;2024-01-07T10:30:39;93801.69;;;-15.44;86.90
64687;BME280;51113;53.646;-113.674;2024-01-07T10:33:08;93802.50;;;-15.43;87.33
64687;BME280;51113;53.646;-113.674;2024-01-07T10:35:37;93807.38;;;-15.42;86.13
64687;BME280;51113;53.646;-113.674;2024-01-07T10:38:09;93810.22;;;-15.72;85.85
64687;BME280;51113;53.646;-113.674;2024-01-07T10:40:38;93787.94;;;-15.86;86.61
64687;BME280;51113;53.646;-113.674;2024-01-07T10:43:09;93821.66;;;-15.82;86.14
64687;BME280;51113;53.646;-113.674;2024-01-07T10:45:37;93778.09;;;-16.00;85.51
64687;BME280;51113;53.646;-113.674;2024-01-07T10:48:08;93826.91;;;-15.74;86.15
64687;BME280;51113;53.646;-113.674;2024-01-07T10:50:38;93831.91;;;-15.74;85.76
64687;BME280;51113;53.646;-113.674;2024-01-07T10:53:10;93833.09;;;-15.79;85.60
64687;BME280;51113;53.646;-113.674;2024-01-07T10:55:52;93748.66;;;-16.31;85.87
64687;BME280;51113;53.646;-113.674;2024-01-07T10:58:25;93831.88;;;-15.86;85.41
64687;BME280;51113;53.646;-113.674;2024-01-07T11:00:54;93830.00;;;-15.83;85.48
64687;BME280;51113;53.646;-113.674;2024-01-07T11:03:45;93831.09;;;-15.87;85.94
64687;BME280;51113;53.646;-113.674;2024-01-07T11:06:31;93788.31;;;-16.17;86.01
64687;BME280;51113;53.646;-113.674;2024-01-07T11:09:26;93835.97;;;-15.85;85.40
64687;BME280;51113;53.646;-113.674;2024-01-07T11:11:57;93832.38;;;-15.94;85.43
64687;BME280;51113;53.646;-113.674;2024-01-07T11:14:41;93822.25;;;-15.78;86.54
64687;BME280;51113;53.646;-113.674;2024-01-07T11:17:13;93833.59;;;-15.87;85.84
64687;BME280;51113;53.646;-113.674;2024-01-07T11:19:51;93843.13;;;-15.81;85.71
64687;BME280;51113;53.646;-113.674;2024-01-07T11:22:27;93843.91;;;-15.93;85.46
64687;BME280;51113;53.646;-113.674;2024-01-07T11:24:58;93838.66;;;-15.88;85.96
64687;BME280;51113;53.646;-113.674;2024-01-07T11:27:30;93829.59;;;-16.02;85.72
64687;BME280;51113;53.646;-113.674;2024-01-07T11:32:34;93817.25;;;-16.16;86.29
64687;BME280;51113;53.646;-113.674;2024-01-07T11:35:03;93805.22;;;-16.22;85.45
64687;BME280;51113;53.646;-113.674;2024-01-07T11:37:32;93844.63;;;-15.91;86.34
64687;BME280;51113;53.646;-113.674;2024-01-07T11:40:07;93839.91;;;-16.08;85.59
64687;BME280;51113;53.646;-113.674;2024-01-07T11:42:37;93794.97;;;-16.30;86.35
64687;BME280;51113;53.646;-113.674;2024-01-07T11:45:05;93841.41;;;-16.06;86.28
64687;BME280;51113;53.646;-113.674;2024-01-07T11:47:35;93845.09;;;-15.98;85.95
64687;BME280;51113;53.646;-113.674;2024-01-07T11:50:04;93842.22;;;-16.05;85.94
64687;BME280;51113;53.646;-113.674;2024-01-07T11:52:34;93855.03;;;-15.98;85.89
64687;BME280;51113;53.646;-113.674;2024-01-07T11:55:05;93842.91;;;-16.03;85.75
64687;BME280;51113;53.646;-113.674;2024-01-07T11:57:34;93846.78;;;-16.12;85.52
64687;BME280;51113;53.646;-113.674;2024-01-07T12:00:03;93849.03;;;-16.21;85.73
64687;BME280;51113;53.646;-113.674;2024-01-07T12:02:32;93850.16;;;-16.13;85.65
64687;BME280;51113;53.646;-113.674;2024-01-07T12:05:01;93857.50;;;-16.11;85.80
64687;BME280;51113;53.646;-113.674;2024-01-07T12:07:30;93847.66;;;-16.13;85.76
64687;BME280;51113;53.646;-113.674;2024-01-07T12:09:59;93855.78;;;-16.23;85.63
64687;BME280;51113;53.646;-113.674;2024-01-07T12:12:28;93856.88;;;-16.27;85.85
64687;BME280;51113;53.646;-113.674;2024-01-07T12:14:57;93816.19;;;-16.52;85.73
64687;BME280;51113;53.646;-113.674;2024-01-07T12:17:26;93864.22;;;-16.26;85.44
64687;BME280;51113;53.646;-113.674;2024-01-07T12:19:56;93861.56;;;-16.23;85.78
64687;BME280;51113;53.646;-113.674;2024-01-07T12:22:27;93862.16;;;-16.19;85.73
64687;BME280;51113;53.646;-113.674;2024-01-07T12:25:02;93862.34;;;-16.22;85.39
64687;BME280;51113;53.646;-113.674;2024-01-07T12:27:32;93862.16;;;-16.19;85.64
64687;BME280;51113;53.646;-113.674;2024-01-07T12:30:02;93858.69;;;-16.17;85.42
64687;BME280;51113;53.646;-113.674;2024-01-07T12:32:33;93871.00;;;-16.28;85.11
64687;BME280;51113;53.646;-113.674;2024-01-07T12:35:06;93825.78;;;-16.60;85.17
64687;BME280;51113;53.646;-113.674;2024-01-07T12:37:38;93879.44;;;-16.30;85.77